sensor_id;sensor_type;location;lat;lon;timestamp;P1;durP1;ratioP1;P2;durP2;ratioP2
4504;SDS011;2265;48.794;9.520;2023-04-08T00:00:21;6.93;;;3.20;;
4504;SDS011;2265;48.794;9.520;2023-04-08T00:02:48;4.60;;;2.50;;
4504;SDS011;2265;48.794;9.520;2023-04-08T00:05:16;6.00;;;2.70;;
4504;SDS011;2265;48.794;9.520;2023-04-08T00:07:44;5.07;;;2.80;;
4504;SDS011;2265;48.794;9.520;2023-04-08T00:10:15;5.10;;;2.80;;
4504;SDS011;2265;48.794;9.520;2023-04-08T00:12:42;5.07;;;2.80;;
4504;SDS011;2265;48.794;9.520;2023-04-08T00:15:10;6.00;;;3.10;;
4504;SDS011;2265;48.794;9.520;2023-04-08T00:17:37;4.80;;;2.50;;
4504;SDS011;2265;48.794;9.520;2023-04-08T00:20:04;5.07;;;2.43;;
4504;SDS011;2265;48.794;9.520;2023-04-08T00:22:32;9.17;;;3.70;;
4504;SDS011;2265;48.794;9.520;2023-04-08T00:24:59;5.30;;;3.00;;
4504;SDS011;2265;48.794;9.520;2023-04-08T00:27:29;8.67;;;3.17;;
4504;SDS011;2265;48.794;9.520;2023-04-08T00:29:57;6.73;;;3.13;;
4504;SDS011;2265;48.794;9.520;2023-04-08T00:32:25;5.17;;;3.43;;
4504;SDS011;2265;48.794;9.520;2023-04-08T00:34:53;7.77;;;2.90;;
4504;SDS011;2265;48.794;9.520;2023-04-08T00:37:20;6.30;;;3.23;;
4504;SDS011;2265;48.794;9.520;2023-04-08T00:39:49;10.73;;;3.10;;
4504;SDS011;2265;48.794;9.520;2023-04-08T00:42:18;5.97;;;2.60;;
4504;SDS011;2265;48.794;9.520;2023-04-08T00:44:47;7.60;;;3.30;;
4504;SDS011;2265;48.794;9.520;2023-04-08T00:47:14;6.53;;;2.80;;
4504;SDS011;2265;48.794;9.520;2023-04-08T00:49:42;6.77;;;3.70;;
4504;SDS011;2265;48.794;9.520;2023-04-08T00:52:10;7.33;;;3.20;;
4504;SDS011;2265;48.794;9.520;2023-04-08T00:54:37;6.33;;;2.97;;
4504;SDS011;2265;48.794;9.520;2023-04-08T00:57:05;8.30;;;3.13;;
4504;SDS011;2265;48.794;9.520;2023-04-08T00:59:32;4.20;;;2.70;;
4504;SDS011;2265;48.794;9.520;2023-04-08T01:02:06;8.67;;;3.43;;
4504;SDS011;2265;48.794;9.520;2023-04-08T01:04:39;5.73;;;3.07;;
4504;SDS011;2265;48.794;9.520;2023-04-08T01:07:14;5.00;;;3.20;;
4504;SDS011;2265;48.794;9.520;2023-04-08T01:09:45;5.50;;;3.10;;
4504;SDS011;2265;48.794;9.520;2023-04-08T01:12:16;5.27;;;2.73;;
4504;SDS011;2265;48.794;9.520;2023-04-08T01:14:46;7.87;;;3.00;;
4504;SDS011;2265;48.794;9.520;2023-04-08T01:17:19;6.63;;;3.77;;
4504;SDS011;2265;48.794;9.520;2023-04-08T01:19:48;6.10;;;3.07;;
4504;SDS011;2265;48.794;9.520;2023-04-08T01:22:18;6.00;;;3.17;;
4504;SDS011;2265;48.794;9.520;2023-04-08T01:24:56;5.40;;;3.30;;
4504;SDS011;2265;48.794;9.520;2023-04-08T01:27:33;7.83;;;3.73;;
4504;SDS011;2265;48.794;9.520;2023-04-08T01:30:01;6.80;;;2.93;;
4504;SDS011;2265;48.794;9.520;2023-04-08T01:32:29;7.70;;;2.93;;
4504;SDS011;2265;48.794;9.520;2023-04-08T01:34:59;9.60;;;4.43;;
4504;SDS011;2265;48.794;9.520;2023-04-08T01:37:28;7.23;;;3.57;;
4504;SDS011;2265;48.794;9.520;2023-04-08T01:39:56;7.03;;;3.00;;
4504;SDS011;2265;48.794;9.520;2023-04-08T01:42:26;4.20;;;2.73;;
4504;SDS011;2265;48.794;9.520;2023-04-08T01:44:56;5.57;;;3.43;;
4504;SDS011;2265;48.794;9.520;2023-04-08T01:47:24;4.37;;;2.80;;
4504;SDS011;2265;48.794;9.520;2023-04-08T01:49:53;8.10;;;3.67;;
4504;SDS011;2265;48.794;9.520;2023-04-08T01:52:22;10.20;;;3.63;;
4504;SDS011;2265;48.794;9.520;2023-04-08T01:54:51;6.47;;;3.27;;
4504;SDS011;2265;48.794;9.520;2023-04-08T01:57:26;7.50;;;3.40;;
4504;SDS011;2265;48.794;9.520;2023-04-08T02:00:06;4.73;;;3.20;;
4504;SDS011;2265;48.794;9.520;2023-04-08T02:02:35;7.43;;;3.40;;
4504;SDS011;2265;48.794;9.520;2023-04-08T02:05:04;7.17;;;3.20;;
4504;SDS011;2265;48.794;9.520;2023-04-08T02:07:32;5.60;;;3.10;;
4504;SDS011;2265;48.794;9.520;2023-04-08T02:09:59;6.17;;;3.47;;
4504;SDS011;2265;48.794;9.520;2023-04-08T02:12:26;2.90;;;2.53;;
4504;SDS011;2265;48.794;9.520;2023-04-08T02:14:53;7.37;;;3.30;;
4504;SDS011;2265;48.794;9.520;2023-04-08T02:17:25;5.87;;;2.80;;
4504;SDS011;2265;48.794;9.520;2023-04-08T02:19:59;5.33;;;2.97;;
4504;SDS011;2265;48.794;9.520;2023-04-08T02:22:35;8.87;;;3.60;;
4504;SDS011;2265;48.794;9.520;2023-04-08T02:25:07;9.40;;;3.67;;
4504;SDS011;2265;48.794;9.520;2023-04-08T02:27:38;6.47;;;3.40;;
4504;SDS011;2265;48.794;9.520;2023-04-08T02:30:07;7.47;;;2.80;;
4504;SDS011;2265;48.794;9.520;2023-04-08T02:32:37;5.53;;;2.90;;
4504;SDS011;2265;48.794;9.520;2023-04-08T02:35:05;6.27;;;3.47;;
4504;SDS011;2265;48.794;9.520;2023-04-08T02:37:34;5.47;;;2.77;;
4504;SDS011;2265;48.794;9.520;2023-04-08T02:40:01;6.63;;;3.33;;
4504;SDS011;2265;48.794;9.520;2023-04-08T02:42:29;7.30;;;3.90;;
4504;SDS011;2265;48.794;9.520;2023-04-08T02:44:56;5.80;;;3.07;;
4504;SDS011;2265;48.794;9.520;2023-04-08T02:47:23;8.73;;;3.70;;
4504;SDS011;2265;48.794;9.520;2023-04-08T02:49:52;7.90;;;4.07;;
4504;SDS011;2265;48.794;9.520;2023-04-08T02:52:19;6.50;;;3.43;;
4504;SDS011;2265;48.794;9.520;2023-04-08T02:54:46;7.00;;;3.67;;
4504;SDS011;2265;48.794;9.520;2023-04-08T02:57:13;8.13;;;3.57;;
4504;SDS011;2265;48.794;9.520;2023-04-08T02:59:42;9.47;;;3.87;;
4504;SDS011;2265;48.794;9.520;2023-04-08T03:02:09;10.00;;;3.73;;
4504;SDS011;2265;48.794;9.520;2023-04-08T03:04:36;6.97;;;3.37;;
4504;SDS011;2265;48.794;9.520;2023-04-08T03:07:05;8.80;;;3.77;;
4504;SDS011;2265;48.794;9.520;2023-04-08T03:09:32;8.17;;;3.57;;
4504;SDS011;2265;48.794;9.520;2023-04-08T03:11:59;7.73;;;3.70;;
4504;SDS011;2265;48.794;9.520;2023-04-08T03:14:26;8.83;;;3.60;;
4504;SDS011;2265;48.794;9.520;2023-04-08T03:16:55;12.80;;;3.97;;
4504;SDS011;2265;48.794;9.520;2023-04-08T03:19:22;8.13;;;3.40;;
4504;SDS011;2265;48.794;9.520;2023-04-08T03:21:49;10.07;;;4.80;;
4504;SDS011;2265;48.794;9.520;2023-04-08T03:24:19;8.90;;;4.27;;
4504;SDS011;2265;48.794;9.520;2023-04-08T03:26:46;7.37;;;3.73;;
4504;SDS011;2265;48.794;9.520;2023-04-08T03:29:13;6.77;;;3.27;;
4504;SDS011;2265;48.794;9.520;2023-04-08T03:31:40;11.10;;;4.77;;
4504;SDS011;2265;48.794;9.520;2023-04-08T03:34:07;7.00;;;3.63;;
4504;SDS011;2265;48.794;9.520;2023-04-08T03:36:34;8.88;;;4.60;;
4504;SDS011;2265;48.794;9.520;2023-04-08T03:39:01;8.70;;;4.20;;
4504;SDS011;2265;48.794;9.520;2023-04-08T03:41:30;12.00;;;5.63;;
4504;SDS011;2265;48.794;9.520;2023-04-08T03:43:58;7.60;;;3.70;;
4504;SDS011;2265;48.794;9.520;2023-04-08T03:46:25;6.43;;;4.00;;
4504;SDS011;2265;48.794;9.520;2023-04-08T03:48:52;12.70;;;4.20;;
4504;SDS011;2265;48.794;9.520;2023-04-08T03:51:19;9.60;;;4.27;;
4504;SDS011;2265;48.794;9.520;2023-04-08T03:53:46;11.00;;;4.83;;
4504;SDS011;2265;48.794;9.520;2023-04-08T03:56:15;7.60;;;3.80;;
4504;SDS011;2265;48.794;9.520;2023-04-08T03:58:44;10.73;;;3.77;;
4504;SDS011;2265;48.794;9.520;2023-04-08T04:01:11;5.70;;;3.00;;
4504;SDS011;2265;48.794;9.520;2023-04-08T04:03:39;9.50;;;3.93;;
4504;SDS011;2265;48.794;9.520;2023-04-08T04:06:06;8.80;;;4.10;;
4504;SDS011;2265;48.794;9.520;2023-04-08T04:08:33;6.40;;;3.90;;
4504;SDS011;2265;48.794;9.520;2023-04-08T04:11:01;11.93;;;4.67;;
4504;SDS011;2265;48.794;9.520;2023-04-08T04:13:34;8.47;;;4.50;;
4504;SDS011;2265;48.794;9.520;2023-04-08T04:16:03;6.27;;;3.50;;
4504;SDS011;2265;48.794;9.520;2023-04-08T04:18:30;5.73;;;3.33;;
4504;SDS011;2265;48.794;9.520;2023-04-08T04:20:57;9.17;;;4.13;;
4504;SDS011;2265;48.794;9.520;2023-04-08T04:23:25;9.33;;;3.63;;
4504;SDS011;2265;48.794;9.520;2023-04-08T04:25:52;10.33;;;3.70;;
4504;SDS011;2265;48.794;9.520;2023-04-08T04:28:19;10.17;;;4.23;;
4504;SDS011;2265;48.794;9.520;2023-04-08T04:30:46;10.30;;;4.60;;
4504;SDS011;2265;48.794;9.520;2023-04-08T04:33:15;8.70;;;4.17;;
4504;SDS011;2265;48.794;9.520;2023-04-08T04:35:42;7.77;;;4.23;;
4504;SDS011;2265;48.794;9.520;2023-04-08T04:38:09;7.20;;;3.67;;
4504;SDS011;2265;48.794;9.520;2023-04-08T04:40:37;7.83;;;3.60;;
4504;SDS011;2265;48.794;9.520;2023-04-08T04:43:04;7.53;;;3.90;;
4504;SDS011;2265;48.794;9.520;2023-04-08T04:45:31;6.60;;;3.17;;
4504;SDS011;2265;48.794;9.520;2023-04-08T04:47:58;5.30;;;3.53;;
4504;SDS011;2265;48.794;9.520;2023-04-08T04:50:27;7.20;;;3.77;;
4504;SDS011;2265;48.794;9.520;2023-04-08T04:52:54;8.70;;;4.77;;
4504;SDS011;2265;48.794;9.520;2023-04-08T04:55:21;8.90;;;3.67;;
4504;SDS011;2265;48.794;9.520;2023-04-08T04:57:49;10.10;;;3.60;;
4504;SDS011;2265;48.794;9.520;2023-04-08T05:00:18;9.63;;;4.10;;
4504;SDS011;2265;48.794;9.520;2023-04-08T05:02:45;9.03;;;3.70;;
4504;SDS011;2265;48.794;9.520;2023-04-08T05:05:12;9.50;;;4.57;;
4504;SDS011;2265;48.794;9.520;2023-04-08T05:07:41;8.00;;;3.97;;
4504;SDS011;2265;48.794;9.520;2023-04-08T05:10:08;7.20;;;3.30;;
4504;SDS011;2265;48.794;9.520;2023-04-08T05:12:36;9.63;;;3.57;;
4504;SDS011;2265;48.794;9.520;2023-04-08T05:15:03;6.87;;;3.87;;
4504;SDS011;2265;48.794;9.520;2023-04-08T05:17:32;10.30;;;4.63;;
4504;SDS011;2265;48.794;9.520;2023-04-08T05:19:59;8.03;;;4.07;;
4504;SDS011;2265;48.794;9.520;2023-04-08T05:22:26;10.03;;;4.40;;
4504;SDS011;2265;48.794;9.520;2023-04-08T05:24:56;9.77;;;4.87;;
4504;SDS011;2265;48.794;9.520;2023-04-08T05:27:24;12.87;;;4.43;;
4504;SDS011;2265;48.794;9.520;2023-04-08T05:29:51;15.00;;;5.20;;
4504;SDS011;2265;48.794;9.520;2023-04-08T05:32:18;9.70;;;4.60;;
4504;SDS011;2265;48.794;9.520;2023-04-08T05:34:45;9.00;;;3.90;;
4504;SDS011;2265;48.794;9.520;2023-04-08T05:37:12;11.60;;;5.07;;
4504;SDS011;2265;48.794;9.520;2023-04-08T05:39:39;11.60;;;4.77;;
4504;SDS011;2265;48.794;9.520;2023-04-08T05:42:08;7.83;;;3.90;;
4504;SDS011;2265;48.794;9.520;2023-04-08T05:44:37;8.30;;;3.63;;
4504;SDS011;2265;48.794;9.520;2023-04-08T05:47:05;7.97;;;4.30;;
4504;SDS011;2265;48.794;9.520;2023-04-08T05:49:34;7.43;;;3.47;;
4504;SDS011;2265;48.794;9.520;2023-04-08T05:52:01;13.00;;;4.83;;
4504;SDS011;2265;48.794;9.520;2023-04-08T05:54:28;11.70;;;4.80;;
4504;SDS011;2265;48.794;9.520;2023-04-08T05:56:55;9.50;;;4.43;;
4504;SDS011;2265;48.794;9.520;2023-04-08T05:59:24;6.93;;;3.57;;
4504;SDS011;2265;48.794;9.520;2023-04-08T06:01:54;8.40;;;3.97;;
4504;SDS011;2265;48.794;9.520;2023-04-08T06:04:21;12.63;;;4.63;;
4504;SDS011;2265;48.794;9.520;2023-04-08T06:06:48;10.23;;;4.30;;
4504;SDS011;2265;48.794;9.520;2023-04-08T06:09:15;9.60;;;5.30;;
4504;SDS011;2265;48.794;9.520;2023-04-08T06:11:42;9.33;;;3.80;;
4504;SDS011;2265;48.794;9.520;2023-04-08T06:14:11;11.57;;;5.43;;
4504;SDS011;2265;48.794;9.520;2023-04-08T06:16:39;7.83;;;3.73;;
4504;SDS011;2265;48.794;9.520;2023-04-08T06:19:07;14.70;;;5.27;;
4504;SDS011;2265;48.794;9.520;2023-04-08T06:21:34;13.57;;;4.30;;
4504;SDS011;2265;48.794;9.520;2023-04-08T06:24:01;8.50;;;3.63;;
4504;SDS011;2265;48.794;9.520;2023-04-08T06:26:28;9.60;;;4.20;;
4504;SDS011;2265;48.794;9.520;2023-04-08T06:28:55;7.30;;;4.07;;
4504;SDS011;2265;48.794;9.520;2023-04-08T06:31:22;6.80;;;4.23;;
4504;SDS011;2265;48.794;9.520;2023-04-08T06:33:51;10.33;;;4.63;;
4504;SDS011;2265;48.794;9.520;2023-04-08T06:36:18;12.50;;;4.63;;
4504;SDS011;2265;48.794;9.520;2023-04-08T06:38:46;9.47;;;4.30;;
4504;SDS011;2265;48.794;9.520;2023-04-08T06:41:13;10.20;;;4.10;;
4504;SDS011;2265;48.794;9.520;2023-04-08T06:43:40;6.83;;;3.63;;
4504;SDS011;2265;48.794;9.520;2023-04-08T06:46:07;9.73;;;3.77;;
4504;SDS011;2265;48.794;9.520;2023-04-08T06:48:35;7.07;;;3.53;;
4504;SDS011;2265;48.794;9.520;2023-04-08T06:51:04;11.73;;;4.30;;
4504;SDS011;2265;48.794;9.520;2023-04-08T06:53:33;12.20;;;5.50;;
4504;SDS011;2265;48.794;9.520;2023-04-08T06:56:00;11.37;;;4.57;;
4504;SDS011;2265;48.794;9.520;2023-04-08T06:58:27;9.33;;;4.57;;
4504;SDS011;2265;48.794;9.520;2023-04-08T07:00:55;9.77;;;4.07;;
4504;SDS011;2265;48.794;9.520;2023-04-08T07:03:25;6.97;;;3.97;;
4504;SDS011;2265;48.794;9.520;2023-04-08T07:05:53;7.47;;;3.87;;
4504;SDS011;2265;48.794;9.520;2023-04-08T07:08:22;5.90;;;3.20;;
4504;SDS011;2265;48.794;9.520;2023-04-08T07:10:50;8.50;;;3.93;;
4504;SDS011;2265;48.794;9.520;2023-04-08T07:13:18;8.07;;;3.77;;
4504;SDS011;2265;48.794;9.520;2023-04-08T07:15:46;9.27;;;4.37;;
4504;SDS011;2265;48.794;9.520;2023-04-08T07:18:14;10.10;;;4.03;;
4504;SDS011;2265;48.794;9.520;2023-04-08T07:20:43;11.93;;;4.77;;
4504;SDS011;2265;48.794;9.520;2023-04-08T07:23:10;6.57;;;3.50;;
4504;SDS011;2265;48.794;9.520;2023-04-08T07:25:39;9.20;;;3.70;;
4504;SDS011;2265;48.794;9.520;2023-04-08T07:28:06;6.27;;;3.37;;
4504;SDS011;2265;48.794;9.520;2023-04-08T07:30:33;8.97;;;4.50;;
4504;SDS011;2265;48.794;9.520;2023-04-08T07:33:00;7.00;;;3.53;;
4504;SDS011;2265;48.794;9.520;2023-04-08T07:35:27;9.10;;;3.97;;
4504;SDS011;2265;48.794;9.520;2023-04-08T07:37:56;10.00;;;4.00;;
4504;SDS011;2265;48.794;9.520;2023-04-08T07:40:23;12.03;;;4.20;;
4504;SDS011;2265;48.794;9.520;2023-04-08T07:42:51;12.00;;;4.57;;
4504;SDS011;2265;48.794;9.520;2023-04-08T07:45:19;6.60;;;3.90;;
4504;SDS011;2265;48.794;9.520;2023-04-08T07:47:46;8.73;;;3.70;;
4504;SDS011;2265;48.794;9.520;2023-04-08T07:50:13;6.63;;;4.13;;
4504;SDS011;2265;48.794;9.520;2023-04-08T07:52:40;11.23;;;4.50;;
4504;SDS011;2265;48.794;9.520;2023-04-08T07:55:08;9.40;;;3.97;;
4504;SDS011;2265;48.794;9.520;2023-04-08T07:57:35;11.70;;;5.47;;
4504;SDS011;2265;48.794;9.520;2023-04-08T08:00:10;9.67;;;4.50;;
4504;SDS011;2265;48.794;9.520;2023-04-08T08:02:44;11.00;;;4.20;;
4504;SDS011;2265;48.794;9.520;2023-04-08T08:05:13;13.70;;;4.83;;
4504;SDS011;2265;48.794;9.520;2023-04-08T08:07:40;10.63;;;5.00;;
4504;SDS011;2265;48.794;9.520;2023-04-08T08:10:08;10.63;;;4.80;;
4504;SDS011;2265;48.794;9.520;2023-04-08T08:12:35;11.30;;;4.77;;
4504;SDS011;2265;48.794;9.520;2023-04-08T08:15:02;9.30;;;4.60;;
4504;SDS011;2265;48.794;9.520;2023-04-08T08:17:31;9.50;;;4.47;;
4504;SDS011;2265;48.794;9.520;2023-04-08T08:19:59;11.83;;;5.17;;
4504;SDS011;2265;48.794;9.520;2023-04-08T08:22:27;11.40;;;4.77;;
4504;SDS011;2265;48.794;9.520;2023-04-08T08:24:55;13.10;;;5.60;;
4504;SDS011;2265;48.794;9.520;2023-04-08T08:27:22;11.80;;;5.07;;
4504;SDS011;2265;48.794;9.520;2023-04-08T08:29:49;7.60;;;4.33;;
4504;SDS011;2265;48.794;9.520;2023-04-08T08:32:17;10.47;;;4.23;;
4504;SDS011;2265;48.794;9.520;2023-04-08T08:34:45;11.67;;;5.13;;
4504;SDS011;2265;48.794;9.520;2023-04-08T08:37:13;11.67;;;5.13;;
4504;SDS011;2265;48.794;9.520;2023-04-08T08:39:40;11.23;;;4.97;;
4504;SDS011;2265;48.794;9.520;2023-04-08T08:42:16;10.47;;;5.60;;
4504;SDS011;2265;48.794;9.520;2023-04-08T08:44:44;10.60;;;4.63;;
4504;SDS011;2265;48.794;9.520;2023-04-08T08:47:11;8.67;;;4.47;;
4504;SDS011;2265;48.794;9.520;2023-04-08T08:49:40;8.90;;;4.33;;
4504;SDS011;2265;48.794;9.520;2023-04-08T08:52:08;9.60;;;4.20;;
4504;SDS011;2265;48.794;9.520;2023-04-08T08:54:36;13.17;;;4.70;;
4504;SDS011;2265;48.794;9.520;2023-04-08T08:57:03;10.00;;;4.60;;
4504;SDS011;2265;48.794;9.520;2023-04-08T08:59:30;8.87;;;4.03;;
4504;SDS011;2265;48.794;9.520;2023-04-08T09:01:58;9.80;;;4.50;;
4504;SDS011;2265;48.794;9.520;2023-04-08T09:04:26;9.90;;;5.10;;
4504;SDS011;2265;48.794;9.520;2023-04-08T09:07:06;8.23;;;4.50;;
4504;SDS011;2265;48.794;9.520;2023-04-08T09:09:47;12.30;;;4.73;;
4504;SDS011;2265;48.794;9.520;2023-04-08T09:12:15;11.23;;;5.00;;
4504;SDS011;2265;48.794;9.520;2023-04-08T09:14:42;12.90;;;5.10;;
4504;SDS011;2265;48.794;9.520;2023-04-08T09:17:09;11.30;;;5.03;;
4504;SDS011;2265;48.794;9.520;2023-04-08T09:19:36;9.43;;;4.83;;
4504;SDS011;2265;48.794;9.520;2023-04-08T09:22:04;11.70;;;5.03;;
4504;SDS011;2265;48.794;9.520;2023-04-08T09:24:33;10.63;;;5.00;;
4504;SDS011;2265;48.794;9.520;2023-04-08T09:27:01;18.60;;;5.97;;
4504;SDS011;2265;48.794;9.520;2023-04-08T09:29:28;9.77;;;4.60;;
4504;SDS011;2265;48.794;9.520;2023-04-08T09:31:56;10.70;;;5.13;;
4504;SDS011;2265;48.794;9.520;2023-04-08T09:34:25;11.20;;;4.70;;
4504;SDS011;2265;48.794;9.520;2023-04-08T09:36:56;10.50;;;5.27;;
4504;SDS011;2265;48.794;9.520;2023-04-08T09:39:23;10.80;;;5.10;;
4504;SDS011;2265;48.794;9.520;2023-04-08T09:41:52;14.10;;;5.67;;
4504;SDS011;2265;48.794;9.520;2023-04-08T09:44:25;9.97;;;5.00;;
4504;SDS011;2265;48.794;9.520;2023-04-08T09:46:55;10.77;;;4.63;;
4504;SDS011;2265;48.794;9.520;2023-04-08T09:49:32;10.47;;;4.70;;
4504;SDS011;2265;48.794;9.520;2023-04-08T09:52:06;9.10;;;4.67;;
4504;SDS011;2265;48.794;9.520;2023-04-08T09:54:36;10.30;;;4.80;;
4504;SDS011;2265;48.794;9.520;2023-04-08T09:57:12;11.30;;;5.20;;
4504;SDS011;2265;48.794;9.520;2023-04-08T09:59:44;11.83;;;4.90;;
4504;SDS011;2265;48.794;9.520;2023-04-08T10:02:18;10.60;;;4.87;;
4504;SDS011;2265;48.794;9.520;2023-04-08T10:04:54;10.23;;;5.30;;
4504;SDS011;2265;48.794;9.520;2023-04-08T10:07:22;10.33;;;4.60;;
4504;SDS011;2265;48.794;9.520;2023-04-08T10:09:50;10.10;;;4.80;;
4504;SDS011;2265;48.794;9.520;2023-04-08T10:12:19;9.20;;;4.80;;
4504;SDS011;2265;48.794;9.520;2023-04-08T10:17:47;12.50;;;5.40;;
4504;SDS011;2265;48.794;9.520;2023-04-08T10:23:14;10.80;;;4.83;;
4504;SDS011;2265;48.794;9.520;2023-04-08T10:25:42;13.93;;;5.60;;
4504;SDS011;2265;48.794;9.520;2023-04-08T10:30:59;14.63;;;5.23;;
4504;SDS011;2265;48.794;9.520;2023-04-08T10:33:31;10.10;;;5.23;;
4504;SDS011;2265;48.794;9.520;2023-04-08T10:36:00;10.87;;;4.60;;
4504;SDS011;2265;48.794;9.520;2023-04-08T10:38:35;8.73;;;4.57;;
4504;SDS011;2265;48.794;9.520;2023-04-08T10:41:02;11.60;;;5.20;;
4504;SDS011;2265;48.794;9.520;2023-04-08T10:43:36;10.30;;;5.00;;
4504;SDS011;2265;48.794;9.520;2023-04-08T10:46:03;13.70;;;6.00;;
4504;SDS011;2265;48.794;9.520;2023-04-08T10:48:31;10.73;;;4.80;;
4504;SDS011;2265;48.794;9.520;2023-04-08T10:50:58;9.03;;;4.50;;
4504;SDS011;2265;48.794;9.520;2023-04-08T10:53:26;11.50;;;4.83;;
4504;SDS011;2265;48.794;9.520;2023-04-08T10:55:53;14.20;;;6.00;;
4504;SDS011;2265;48.794;9.520;2023-04-08T10:58:28;10.23;;;5.27;;
4504;SDS011;2265;48.794;9.520;2023-04-08T11:01:01;11.80;;;5.90;;
4504;SDS011;2265;48.794;9.520;2023-04-08T11:03:31;10.97;;;5.10;;
4504;SDS011;2265;48.794;9.520;2023-04-08T11:05:59;14.97;;;6.57;;
4504;SDS011;2265;48.794;9.520;2023-04-08T11:08:27;10.83;;;4.80;;
4504;SDS011;2265;48.794;9.520;2023-04-08T11:10:54;13.73;;;4.90;;
4504;SDS011;2265;48.794;9.520;2023-04-08T11:13:22;11.90;;;4.67;;
4504;SDS011;2265;48.794;9.520;2023-04-08T11:15:50;11.43;;;3.80;;
4504;SDS011;2265;48.794;9.520;2023-04-08T11:18:19;8.80;;;4.20;;
4504;SDS011;2265;48.794;9.520;2023-04-08T11:20:49;9.07;;;4.20;;
4504;SDS011;2265;48.794;9.520;2023-04-08T11:23:16;10.20;;;4.20;;
4504;SDS011;2265;48.794;9.520;2023-04-08T11:25:44;10.23;;;4.40;;
4504;SDS011;2265;48.794;9.520;2023-04-08T11:28:12;9.60;;;4.40;;
4504;SDS011;2265;48.794;9.520;2023-04-08T11:30:45;8.70;;;4.63;;
4504;SDS011;2265;48.794;9.520;2023-04-08T11:33:14;7.37;;;3.90;;
4504;SDS011;2265;48.794;9.520;2023-04-08T11:35:43;8.73;;;3.63;;
4504;SDS011;2265;48.794;9.520;2023-04-08T11:38:10;12.43;;;4.83;;
4504;SDS011;2265;48.794;9.520;2023-04-08T11:40:37;7.03;;;3.50;;
4504;SDS011;2265;48.794;9.520;2023-04-08T11:43:08;7.50;;;3.60;;
4504;SDS011;2265;48.794;9.520;2023-04-08T11:45:37;8.57;;;4.10;;
4504;SDS011;2265;48.794;9.520;2023-04-08T11:48:08;8.53;;;3.60;;
4504;SDS011;2265;48.794;9.520;2023-04-08T11:50:36;8.00;;;4.03;;
4504;SDS011;2265;48.794;9.520;2023-04-08T11:53:14;8.30;;;4.07;;
4504;SDS011;2265;48.794;9.520;2023-04-08T11:55:43;7.67;;;4.10;;
4504;SDS011;2265;48.794;9.520;2023-04-08T11:58:10;10.60;;;4.37;;
4504;SDS011;2265;48.794;9.520;2023-04-08T12:00:38;8.27;;;3.80;;
4504;SDS011;2265;48.794;9.520;2023-04-08T12:03:05;11.50;;;4.30;;
4504;SDS011;2265;48.794;9.520;2023-04-08T12:05:32;6.40;;;3.30;;
4504;SDS011;2265;48.794;9.520;2023-04-08T12:08:01;6.23;;;3.53;;
4504;SDS011;2265;48.794;9.520;2023-04-08T12:10:30;7.63;;;3.73;;
4504;SDS011;2265;48.794;9.520;2023-04-08T12:12:57;6.70;;;3.70;;
4504;SDS011;2265;48.794;9.520;2023-04-08T12:15:24;7.73;;;3.63;;
4504;SDS011;2265;48.794;9.520;2023-04-08T12:17:51;8.00;;;4.20;;
4504;SDS011;2265;48.794;9.520;2023-04-08T12:20:18;8.73;;;3.90;;
4504;SDS011;2265;48.794;9.520;2023-04-08T12:22:45;7.73;;;4.03;;
4504;SDS011;2265;48.794;9.520;2023-04-08T12:25:12;7.63;;;3.87;;
4504;SDS011;2265;48.794;9.520;2023-04-08T12:27:41;10.90;;;4.53;;
4504;SDS011;2265;48.794;9.520;2023-04-08T12:30:12;5.47;;;3.50;;
4504;SDS011;2265;48.794;9.520;2023-04-08T12:32:40;8.70;;;3.70;;
4504;SDS011;2265;48.794;9.520;2023-04-08T12:35:09;7.67;;;4.00;;
4504;SDS011;2265;48.794;9.520;2023-04-08T12:37:37;9.37;;;4.07;;
4504;SDS011;2265;48.794;9.520;2023-04-08T12:40:04;12.57;;;4.77;;
4504;SDS011;2265;48.794;9.520;2023-04-08T12:42:33;12.03;;;4.00;;
4504;SDS011;2265;48.794;9.520;2023-04-08T12:45:02;6.73;;;3.60;;
4504;SDS011;2265;48.794;9.520;2023-04-08T12:47:29;8.87;;;3.80;;
4504;SDS011;2265;48.794;9.520;2023-04-08T12:49:58;8.00;;;3.90;;
4504;SDS011;2265;48.794;9.520;2023-04-08T12:52:26;8.37;;;4.17;;
4504;SDS011;2265;48.794;9.520;2023-04-08T12:54:53;10.23;;;4.60;;
4504;SDS011;2265;48.794;9.520;2023-04-08T12:57:20;8.50;;;3.77;;
4504;SDS011;2265;48.794;9.520;2023-04-08T12:59:47;9.10;;;4.20;;
4504;SDS011;2265;48.794;9.520;2023-04-08T13:02:16;7.93;;;3.87;;
4504;SDS011;2265;48.794;9.520;2023-04-08T13:04:44;6.57;;;3.43;;
4504;SDS011;2265;48.794;9.520;2023-04-08T13:07:11;5.40;;;2.47;;
4504;SDS011;2265;48.794;9.520;2023-04-08T13:09:38;8.90;;;4.60;;
4504;SDS011;2265;48.794;9.520;2023-04-08T13:12:06;10.37;;;4.00;;
4504;SDS011;2265;48.794;9.520;2023-04-08T13:14:33;8.30;;;4.20;;
4504;SDS011;2265;48.794;9.520;2023-04-08T13:17:01;10.40;;;4.80;;
4504;SDS011;2265;48.794;9.520;2023-04-08T13:19:30;10.73;;;5.07;;
4504;SDS011;2265;48.794;9.520;2023-04-08T13:21:57;10.13;;;4.50;;
4504;SDS011;2265;48.794;9.520;2023-04-08T13:24:24;11.20;;;4.53;;
4504;SDS011;2265;48.794;9.520;2023-04-08T13:26:52;14.10;;;5.50;;
4504;SDS011;2265;48.794;9.520;2023-04-08T13:29:20;10.30;;;4.77;;
4504;SDS011;2265;48.794;9.520;2023-04-08T13:31:47;11.07;;;5.17;;
4504;SDS011;2265;48.794;9.520;2023-04-08T13:34:15;11.43;;;5.63;;
4504;SDS011;2265;48.794;9.520;2023-04-08T13:36:43;10.27;;;5.10;;
4504;SDS011;2265;48.794;9.520;2023-04-08T13:39:12;7.80;;;3.90;;
4504;SDS011;2265;48.794;9.520;2023-04-08T13:41:39;9.07;;;4.50;;
4504;SDS011;2265;48.794;9.520;2023-04-08T13:44:07;10.47;;;4.67;;
4504;SDS011;2265;48.794;9.520;2023-04-08T13:46:35;8.97;;;4.77;;
4504;SDS011;2265;48.794;9.520;2023-04-08T13:49:07;7.83;;;4.27;;
4504;SDS011;2265;48.794;9.520;2023-04-08T13:51:35;7.37;;;4.20;;
4504;SDS011;2265;48.794;9.520;2023-04-08T13:54:03;11.70;;;4.57;;
4504;SDS011;2265;48.794;9.520;2023-04-08T13:56:30;7.27;;;3.63;;
4504;SDS011;2265;48.794;9.520;2023-04-08T13:58:58;8.60;;;3.73;;
4504;SDS011;2265;48.794;9.520;2023-04-08T14:01:26;11.87;;;4.47;;
4504;SDS011;2265;48.794;9.520;2023-04-08T14:03:53;7.70;;;3.90;;
4504;SDS011;2265;48.794;9.520;2023-04-08T14:06:20;9.33;;;4.53;;
4504;SDS011;2265;48.794;9.520;2023-04-08T14:08:47;9.13;;;4.23;;
4504;SDS011;2265;48.794;9.520;2023-04-08T14:11:16;7.20;;;3.97;;
4504;SDS011;2265;48.794;9.520;2023-04-08T14:13:43;8.27;;;4.00;;
4504;SDS011;2265;48.794;9.520;2023-04-08T14:16:10;6.10;;;3.43;;
4504;SDS011;2265;48.794;9.520;2023-04-08T14:18:37;7.33;;;3.33;;
4504;SDS011;2265;48.794;9.520;2023-04-08T14:21:04;4.30;;;2.73;;
4504;SDS011;2265;48.794;9.520;2023-04-08T14:23:31;5.57;;;3.30;;
4504;SDS011;2265;48.794;9.520;2023-04-08T14:25:58;6.33;;;3.37;;
4504;SDS011;2265;48.794;9.520;2023-04-08T14:28:28;5.90;;;3.60;;
4504;SDS011;2265;48.794;9.520;2023-04-08T14:30:58;7.23;;;3.17;;
4504;SDS011;2265;48.794;9.520;2023-04-08T14:33:25;5.17;;;2.90;;
4504;SDS011;2265;48.794;9.520;2023-04-08T14:35:53;5.53;;;2.90;;
4504;SDS011;2265;48.794;9.520;2023-04-08T14:38:20;4.53;;;3.10;;
4504;SDS011;2265;48.794;9.520;2023-04-08T14:40:47;6.17;;;3.20;;
4504;SDS011;2265;48.794;9.520;2023-04-08T14:43:14;5.60;;;3.13;;
4504;SDS011;2265;48.794;9.520;2023-04-08T14:45:43;5.50;;;2.90;;
4504;SDS011;2265;48.794;9.520;2023-04-08T14:48:10;4.40;;;2.70;;
4504;SDS011;2265;48.794;9.520;2023-04-08T14:50:38;5.27;;;2.80;;
4504;SDS011;2265;48.794;9.520;2023-04-08T14:53:05;6.20;;;3.07;;
4504;SDS011;2265;48.794;9.520;2023-04-08T14:55:34;6.60;;;3.03;;
4504;SDS011;2265;48.794;9.520;2023-04-08T14:58:01;4.77;;;2.80;;
4504;SDS011;2265;48.794;9.520;2023-04-08T15:00:29;5.40;;;2.77;;
4504;SDS011;2265;48.794;9.520;2023-04-08T15:02:58;3.80;;;2.53;;
4504;SDS011;2265;48.794;9.520;2023-04-08T15:05:25;5.87;;;2.73;;
4504;SDS011;2265;48.794;9.520;2023-04-08T15:07:53;3.50;;;2.40;;
4504;SDS011;2265;48.794;9.520;2023-04-08T15:10:20;4.87;;;3.03;;
4504;SDS011;2265;48.794;9.520;2023-04-08T15:12:47;5.57;;;2.93;;
4504;SDS011;2265;48.794;9.520;2023-04-08T15:15:14;5.60;;;2.73;;
4504;SDS011;2265;48.794;9.520;2023-04-08T15:17:45;7.10;;;2.60;;
4504;SDS011;2265;48.794;9.520;2023-04-08T15:20:14;7.37;;;3.00;;
4504;SDS011;2265;48.794;9.520;2023-04-08T15:22:44;4.43;;;2.70;;
4504;SDS011;2265;48.794;9.520;2023-04-08T15:25:12;6.27;;;2.97;;